Time;durP1;ratioP1;P1;durP2;ratioP2;P2;SDS_P1;SDS_P2;PMS_P1;PMS_P2;Temp;Humidity;BMP_temperature;BMP_pressure;BME280_temperature;BME280_humidity;BME280_pressure;Samples;Min_cycle;Max_cycle;Signal;HPM_P1;HPM_P2
2022/07/15 00:00:18;;;;;;;4.28;3.22;;;12.20;99.90;;;;;;5034476;28;20131;-88
2022/07/15 00:02:44;;;;;;;4.75;3.03;;;12.10;99.90;;;;;;5034504;28;20061;-89
2022/07/15 00:05:10;;;;;;;6.72;2.80;;;12.10;99.90;;;;;;5051231;28;20057;-89
2022/07/15 00:07:36;;;;;;;6.38;3.10;;;12.00;99.90;;;;;;5104489;22;20062;-90
2022/07/15 00:10:15;;;;;;;4.13;3.10;;;12.00;99.90;;;;;;5112903;22;20040;-88
2022/07/15 00:12:47;;;;;;;6.82;3.05;;;11.90;99.90;;;;;;5033758;28;20041;-87
2022/07/15 00:15:13;;;;;;;7.28;3.45;;;11.80;99.90;;;;;;5033421;28;20033;-88
2022/07/15 00:17:48;;;;;;;5.05;3.15;;;11.80;99.90;;;;;;5032738;28;20042;-88
2022/07/15 00:20:15;;;;;;;4.00;2.88;;;11.70;99.90;;;;;;5049740;28;20133;-88
2022/07/15 00:22:42;;;;;;;5.40;3.10;;;11.70;99.90;;;;;;5033310;28;20029;-89
2022/07/15 00:25:09;;;;;;;7.28;2.88;;;11.70;99.90;;;;;;5033269;28;20483;-88
2022/07/15 00:27:36;;;;;;;7.63;3.22;;;11.70;99.90;;;;;;5033264;28;20025;-88
2022/07/15 00:30:06;;;;;;;7.18;3.10;;;11.60;99.90;;;;;;5032867;28;20025;-88
2022/07/15 00:32:32;;;;;;;5.45;3.42;;;11.50;99.90;;;;;;5033451;28;20026;-88
2022/07/15 00:34:58;;;;;;;6.25;3.22;;;11.50;99.90;;;;;;5033031;28;20040;-88
2022/07/15 00:37:23;;;;;;;6.43;2.90;;;11.40;99.90;;;;;;5049383;28;20061;-88
2022/07/15 00:39:49;;;;;;;6.28;2.90;;;11.40;99.90;;;;;;5032641;28;20398;-90
2022/07/15 00:42:43;;;;;;;4.15;2.55;;;11.40;99.90;;;;;;5032750;28;20037;-88
2022/07/15 00:45:27;;;;;;;8.88;3.28;;;11.40;99.90;;;;;;5032977;28;20034;-88
2022/07/15 00:47:55;;;;;;;5.93;3.60;;;11.40;99.90;;;;;;5033437;28;20126;-88
2022/07/15 00:50:24;;;;;;;8.27;2.92;;;11.30;99.90;;;;;;5033447;28;20029;-88
2022/07/15 00:53:00;;;;;;;6.75;4.18;;;11.30;99.90;;;;;;5032824;28;20474;-88
2022/07/15 00:55:29;;;;;;;5.03;3.17;;;11.20;99.90;;;;;;5032783;28;20043;-88
2022/07/15 00:57:59;;;;;;;5.70;3.10;;;11.20;99.90;;;;;;5032711;28;20045;-88
2022/07/15 01:00:44;;;;;;;6.45;2.90;;;11.10;99.90;;;;;;5032801;28;20033;-88
2022/07/15 01:03:10;;;;;;;5.75;2.95;;;11.10;99.90;;;;;;5033318;28;20037;-88
2022/07/15 01:05:37;;;;;;;11.20;3.22;;;11.10;99.90;;;;;;5049182;28;20037;-88
2022/07/15 01:08:11;;;;;;;7.43;2.60;;;11.10;99.90;;;;;;5032553;28;20030;-88
2022/07/15 01:10:39;;;;;;;6.97;3.03;;;11.10;99.90;;;;;;5031908;28;20099;-88
2022/07/15 01:13:05;;;;;;;5.32;2.80;;;11.10;99.90;;;;;;5040440;28;20025;-88
2022/07/15 01:15:32;;;;;;;10.70;3.42;;;11.10;99.90;;;;;;5032583;28;20083;-88
2022/07/15 01:18:08;;;;;;;6.50;3.33;;;11.10;99.90;;;;;;5027025;28;20022;-88
2022/07/15 01:20:41;;;;;;;11.65;2.83;;;11.00;99.90;;;;;;5012413;28;20030;-89
2022/07/15 01:23:07;;;;;;;7.75;2.95;;;11.00;99.90;;;;;;5011178;28;20014;-88
2022/07/15 01:25:46;;;;;;;5.28;3.08;;;10.90;99.90;;;;;;5011249;28;20030;-87
2022/07/15 01:28:13;;;;;;;11.35;3.30;;;10.90;99.90;;;;;;5010784;28;20036;-89
2022/07/15 01:30:39;;;;;;;9.20;3.50;;;10.90;99.90;;;;;;5011220;28;20029;-88
2022/07/15 01:33:06;;;;;;;6.82;2.65;;;11.00;99.90;;;;;;5010084;28;20026;-88
2022/07/15 01:35:32;;;;;;;9.32;3.58;;;11.00;99.90;;;;;;5010483;28;20270;-89
2022/07/15 01:38:09;;;;;;;6.57;3.10;;;11.00;99.90;;;;;;5010371;28;20034;-88
2022/07/15 01:40:35;;;;;;;5.95;3.38;;;11.00;99.90;;;;;;5010683;28;20445;-89
2022/07/15 01:43:03;;;;;;;5.05;2.90;;;10.90;99.90;;;;;;5010772;28;20084;-89
2022/07/15 01:45:29;;;;;;;5.55;3.40;;;10.90;99.90;;;;;;5010726;28;20513;-89
2022/07/15 01:48:05;;;;;;;6.18;3.60;;;10.80;99.90;;;;;;5009947;28;20068;-90
2022/07/15 01:50:47;;;;;;;8.52;3.22;;;10.90;99.90;;;;;;5010368;28;20383;-89
2022/07/15 01:53:20;;;;;;;5.25;2.95;;;10.80;99.90;;;;;;5008659;28;20116;-89
2022/07/15 01:55:48;;;;;;;9.45;2.97;;;10.80;99.90;;;;;;5009840;28;20060;-88
2022/07/15 01:58:15;;;;;;;6.32;2.85;;;10.80;99.90;;;;;;5017400;28;20025;-88
2022/07/15 02:00:41;;;;;;;3.72;2.72;;;10.80;99.90;;;;;;5133529;22;20097;-89
2022/07/15 02:03:26;;;;;;;4.10;2.72;;;10.90;99.90;;;;;;5027653;28;20115;-87
2022/07/15 02:05:52;;;;;;;5.10;3.03;;;10.90;99.90;;;;;;5011806;28;20120;-88
2022/07/15 02:08:20;;;;;;;6.68;2.90;;;10.90;99.90;;;;;;5027513;28;20033;-89
2022/07/15 02:10:54;;;;;;;6.18;2.95;;;10.90;99.90;;;;;;5025895;28;20049;-89
2022/07/15 02:13:21;;;;;;;4.40;2.85;;;10.90;99.90;;;;;;5002762;28;20152;-88
2022/07/15 02:15:51;;;;;;;6.53;3.08;;;10.80;99.90;;;;;;4993048;28;20041;-88
2022/07/15 02:18:17;;;;;;;4.35;2.70;;;10.90;99.90;;;;;;4990466;28;20034;-88
2022/07/15 02:20:50;;;;;;;6.80;2.88;;;11.00;99.90;;;;;;4990007;28;20042;-89
2022/07/15 02:23:16;;;;;;;6.75;2.75;;;11.00;99.90;;;;;;4989976;28;20309;-88
2022/07/15 02:25:42;;;;;;;5.57;2.25;;;11.10;99.90;;;;;;4990021;28;20038;-88
2022/07/15 02:28:09;;;;;;;6.88;2.60;;;11.10;99.90;;;;;;4989712;28;20033;-89
2022/07/15 02:30:38;;;;;;;7.03;3.00;;;11.20;99.90;;;;;;4989884;28;20034;-89
2022/07/15 02:33:10;;;;;;;13.38;2.80;;;11.10;99.90;;;;;;4989515;28;20041;-88
2022/07/15 02:35:37;;;;;;;7.75;2.97;;;11.10;99.90;;;;;;4998530;28;20030;-89
2022/07/15 02:38:04;;;;;;;5.68;2.92;;;11.10;99.90;;;;;;5015169;28;20030;-90
2022/07/15 02:40:31;;;;;;;9.82;3.20;;;11.00;99.90;;;;;;5015595;28;20050;-90
2022/07/15 02:43:09;;;;;;;3.63;2.53;;;11.00;99.90;;;;;;5015150;28;20026;-90
2022/07/15 02:45:36;;;;;;;3.80;2.38;;;11.00;99.90;;;;;;5100634;23;20032;-90
2022/07/15 02:48:08;;;;;;;5.20;3.03;;;10.90;99.90;;;;;;5073826;28;20047;-89
2022/07/15 02:50:46;;;;;;;7.72;3.28;;;10.90;99.90;;;;;;5073662;28;20028;-90
2022/07/15 02:53:14;;;;;;;6.82;3.78;;;11.00;99.90;;;;;;5073078;28;20037;-89
2022/07/15 02:55:39;;;;;;;3.63;2.72;;;11.00;99.90;;;;;;5062739;28;20351;-89
2022/07/15 02:58:05;;;;;;;3.45;2.20;;;11.00;99.90;;;;;;5053154;28;20037;-88
2022/07/15 03:00:33;;;;;;;7.93;2.28;;;10.90;99.90;;;;;;5068309;28;20025;-88
2022/07/15 03:03:07;;;;;;;3.67;2.45;;;10.90;99.90;;;;;;5067262;28;20029;-88
2022/07/15 03:05:36;;;;;;;4.80;2.28;;;10.80;99.90;;;;;;5052482;28;20020;-88
2022/07/15 03:08:02;;;;;;;7.10;2.40;;;10.70;99.90;;;;;;5052429;28;20477;-88
2022/07/15 03:10:28;;;;;;;8.48;2.20;;;10.60;99.90;;;;;;5061745;28;20041;-88
2022/07/15 03:13:00;;;;;;;3.05;2.10;;;10.70;99.90;;;;;;5048135;28;20745;-88
2022/07/15 03:15:26;;;;;;;5.78;2.35;;;10.60;99.90;;;;;;5032041;28;20039;-88
2022/07/15 03:17:52;;;;;;;7.07;2.58;;;10.60;99.90;;;;;;5015250;28;20557;-88
2022/07/15 03:20:18;;;;;;;4.85;2.72;;;10.50;99.90;;;;;;5031191;28;20041;-89
2022/07/15 03:22:48;;;;;;;4.05;1.85;;;10.50;99.90;;;;;;5030023;28;20053;-88
2022/07/15 03:25:18;;;;;;;4.32;2.35;;;10.50;99.90;;;;;;5031687;28;20021;-88
2022/07/15 03:27:44;;;;;;;3.60;2.50;;;10.40;99.90;;;;;;5031118;28;20029;-89
2022/07/15 03:30:12;;;;;;;5.47;2.90;;;10.40;99.90;;;;;;5031859;28;20544;-88
2022/07/15 03:32:40;;;;;;;3.17;2.17;;;10.30;99.90;;;;;;5030991;28;20486;-89
2022/07/15 03:35:06;;;;;;;5.28;2.38;;;10.30;99.90;;;;;;5036588;28;20032;-88
2022/07/15 03:37:42;;;;;;;7.63;3.03;;;10.30;99.90;;;;;;5024542;28;20036;-89
2022/07/15 03:40:09;;;;;;;7.20;2.72;;;10.30;99.90;;;;;;5012557;28;20090;-89
2022/07/15 03:42:37;;;;;;;4.10;2.33;;;10.30;99.90;;;;;;5044801;28;20113;-89
2022/07/15 03:45:03;;;;;;;4.13;2.30;;;10.30;99.90;;;;;;5044884;28;20112;-88
2022/07/15 03:47:33;;;;;;;5.50;2.80;;;10.30;99.90;;;;;;5045275;28;20072;-90
2022/07/15 03:50:03;;;;;;;7.95;2.65;;;10.40;99.90;;;;;;5044795;28;20029;-89
2022/07/15 03:52:35;;;;;;;7.05;2.60;;;10.40;99.90;;;;;;5044554;28;20030;-89
2022/07/15 03:55:00;;;;;;;4.10;2.53;;;10.40;99.90;;;;;;5045075;28;20033;-88
2022/07/15 03:57:32;;;;;;;4.35;2.15;;;10.50;99.90;;;;;;5045629;28;20026;-89
2022/07/15 03:59:58;;;;;;;3.17;2.17;;;10.60;99.90;;;;;;5042886;28;20033;-89
2022/07/15 04:02:24;;;;;;;3.10;2.22;;;10.60;99.90;;;;;;5040387;28;20152;-89
2022/07/15 04:04:49;;;;;;;9.98;3.05;;;10.60;99.90;;;;;;5045397;28;20044;-88
2022/07/15 04:07:17;;;;;;;5.72;2.42;;;10.60;99.90;;;;;;5044081;28;20022;-88
2022/07/15 04:09:53;;;;;;;5.50;2.13;;;10.70;99.90;;;;;;5050411;28;20047;-88
2022/07/15 04:12:19;;;;;;;3.30;2.25;;;10.70;99.90;;;;;;5041725;28;20382;-88
2022/07/15 04:14:46;;;;;;;4.13;2.25;;;10.80;99.90;;;;;;5030734;28;20029;-89
2022/07/15 04:17:16;;;;;;;5.32;2.28;;;10.90;99.90;;;;;;5048926;28;20071;-88
2022/07/15 04:20:07;;;;;;;4.47;2.08;;;10.90;99.90;;;;;;5051360;28;20056;-88
2022/07/15 04:22:46;;;;;;;4.53;1.80;;;11.00;99.90;;;;;;5051297;28;20021;-88
2022/07/15 04:25:15;;;;;;;5.85;2.47;;;11.10;99.90;;;;;;5051209;28;20033;-88
2022/07/15 04:27:43;;;;;;;7.65;2.45;;;11.20;99.90;;;;;;5051690;28;20025;-89
2022/07/15 04:30:09;;;;;;;6.07;2.65;;;11.30;99.90;;;;;;5067762;28;20025;-88
2022/07/15 04:32:42;;;;;;;3.53;2.00;;;11.40;99.90;;;;;;5067278;28;20037;-88
2022/07/15 04:35:11;;;;;;;3.45;2.05;;;11.50;99.90;;;;;;5051169;28;20143;-88
2022/07/15 04:37:37;;;;;;;5.30;2.08;;;11.50;99.90;;;;;;5052229;28;20032;-88
2022/07/15 04:40:06;;;;;;;3.80;1.90;;;11.70;99.90;;;;;;5050655;28;20041;-88
2022/07/15 04:42:40;;;;;;;3.60;2.08;;;11.80;99.90;;;;;;5050960;28;20032;-88
2022/07/15 04:45:09;;;;;;;7.28;2.08;;;12.00;99.90;;;;;;5050512;28;20106;-88
2022/07/15 04:47:35;;;;;;;4.25;2.22;;;12.00;99.90;;;;;;5051755;28;20411;-88
2022/07/15 04:53:12;;;;;;;7.32;2.42;;;12.20;99.90;;;;;;4990989;28;20181;-88
2022/07/15 04:55:38;;;;;;;5.30;1.90;;;12.30;99.90;;;;;;4991616;28;20034;-88
2022/07/15 04:58:05;;;;;;;3.17;1.95;;;12.40;99.90;;;;;;4991649;28;20042;-89
2022/07/15 05:00:32;;;;;;;7.15;2.45;;;12.50;99.90;;;;;;4990893;28;20101;-88
2022/07/15 05:02:58;;;;;;;4.60;2.30;;;12.60;99.90;;;;;;4990576;28;20056;-88
2022/07/15 05:05:34;;;;;;;8.13;2.60;;;12.80;99.90;;;;;;4971112;28;20124;-88
2022/07/15 05:08:00;;;;;;;3.00;1.98;;;12.90;99.90;;;;;;4975019;28;20061;-88
2022/07/15 05:10:26;;;;;;;2.85;1.73;;;13.00;99.90;;;;;;4976233;28;20495;-88
2022/07/15 05:13:08;;;;;;;3.67;2.03;;;13.20;99.90;;;;;;4975770;28;20034;-87
2022/07/15 05:15:34;;;;;;;6.20;2.35;;;13.30;99.90;;;;;;4974738;28;20034;-88
2022/07/15 05:18:10;;;;;;;5.60;2.33;;;13.50;99.90;;;;;;4975958;28;20034;-88
2022/07/15 05:20:44;;;;;;;6.25;2.05;;;13.60;99.90;;;;;;4974966;28;20026;-88
2022/07/15 05:23:14;;;;;;;4.72;1.88;;;13.80;99.90;;;;;;5006813;28;20089;-88
2022/07/15 05:25:45;;;;;;;3.72;1.77;;;13.90;99.90;;;;;;4975120;28;20040;-88
2022/07/15 05:28:11;;;;;;;3.67;2.13;;;14.00;99.90;;;;;;4975058;28;20034;-87
2022/07/15 05:30:49;;;;;;;5.07;2.00;;;14.10;99.90;;;;;;4974924;28;20031;-88
2022/07/15 05:33:16;;;;;;;4.13;2.05;;;14.30;99.90;;;;;;4973952;28;20031;-88
2022/07/15 05:35:42;;;;;;;5.72;2.13;;;14.40;99.90;;;;;;4974475;28;20446;-88
2022/07/15 05:38:09;;;;;;;22.50;3.42;;;14.60;99.90;;;;;;4991356;28;20034;-88
2022/07/15 05:40:39;;;;;;;7.60;2.42;;;14.80;99.90;;;;;;5009087;28;20045;-87
2022/07/15 05:43:06;;;;;;;4.63;2.17;;;14.90;99.90;;;;;;4994735;28;20034;-87
2022/07/15 05:45:34;;;;;;;4.97;1.60;;;15.10;99.90;;;;;;4975840;28;20562;-88
2022/07/15 05:48:05;;;;;;;4.85;1.60;;;15.20;99.90;;;;;;4975878;28;20761;-87
2022/07/15 05:50:39;;;;;;;4.03;1.85;;;15.30;99.90;;;;;;4974870;28;20026;-87
2022/07/15 05:53:06;;;;;;;4.50;1.83;;;15.40;99.90;;;;;;4974567;28;20043;-87
2022/07/15 05:55:33;;;;;;;2.75;1.55;;;15.50;99.90;;;;;;4987691;28;20316;-88
2022/07/15 05:57:59;;;;;;;4.03;1.80;;;15.60;99.90;;;;;;4978322;28;20120;-87
2022/07/15 06:00:37;;;;;;;15.52;1.67;;;15.80;99.90;;;;;;4974330;28;20034;-88
2022/07/15 06:03:04;;;;;;;7.38;1.92;;;15.90;99.90;;;;;;4973798;28;20316;-88
2022/07/15 06:05:30;;;;;;;5.15;1.75;;;16.10;99.90;;;;;;4973425;28;20038;-87
2022/07/15 06:08:00;;;;;;;11.73;1.80;;;16.20;99.90;;;;;;4973487;28;20038;-87
2022/07/15 06:10:37;;;;;;;5.88;1.90;;;16.30;99.90;;;;;;4968349;28;20069;-85
2022/07/15 06:13:03;;;;;;;4.80;2.00;;;16.40;99.90;;;;;;4978232;28;20046;-87
2022/07/15 06:15:30;;;;;;;9.30;1.90;;;16.50;99.90;;;;;;4981340;28;20027;-87
2022/07/15 06:17:57;;;;;;;4.75;2.10;;;16.60;99.90;;;;;;5002254;28;20061;-87
2022/07/15 06:20:28;;;;;;;6.32;1.55;;;16.90;99.90;;;;;;4969903;28;20559;-86
2022/07/15 06:22:54;;;;;;;8.13;2.03;;;17.20;99.90;;;;;;4989046;28;20031;-87
2022/07/15 06:25:21;;;;;;;4.50;1.80;;;17.50;99.90;;;;;;4977926;28;20035;-87
2022/07/15 06:27:50;;;;;;;7.68;2.00;;;17.90;99.90;;;;;;5003446;28;20033;-87
2022/07/15 06:30:16;;;;;;;13.85;2.15;;;18.00;99.90;;;;;;4976968;28;20031;-87
2022/07/15 06:32:50;;;;;;;5.20;2.30;;;18.10;99.90;;;;;;4967162;28;20022;-87
2022/07/15 06:35:15;;;;;;;3.13;1.70;;;18.30;99.90;;;;;;5008973;28;20010;-89
2022/07/15 06:37:41;;;;;;;5.45;2.53;;;18.30;99.90;;;;;;5027836;28;20033;-88
2022/07/15 06:40:08;;;;;;;8.40;1.98;;;18.30;99.90;;;;;;4990778;28;20066;-87
2022/07/15 06:42:33;;;;;;;7.57;1.98;;;18.30;99.90;;;;;;5001291;28;20057;-87
2022/07/15 06:45:06;;;;;;;6.47;2.15;;;18.40;99.90;;;;;;4972054;28;20431;-86
2022/07/15 06:47:31;;;;;;;6.80;2.28;;;18.60;99.90;;;;;;4984651;28;20035;-86
2022/07/15 06:49:59;;;;;;;3.35;2.15;;;18.80;99.90;;;;;;4972147;28;20017;-86
2022/07/15 06:52:26;;;;;;;5.20;1.92;;;18.80;99.90;;;;;;4971883;28;20575;-86
2022/07/15 06:54:53;;;;;;;4.85;1.98;;;18.70;99.90;;;;;;4961934;28;20035;-87
2022/07/15 06:57:24;;;;;;;7.35;2.55;;;18.60;99.90;;;;;;5000311;28;20581;-87
2022/07/15 06:59:52;;;;;;;4.43;2.22;;;18.70;99.90;;;;;;4983704;28;20130;-87
2022/07/15 07:02:19;;;;;;;13.07;2.60;;;18.30;99.90;;;;;;4988404;28;20030;-86
2022/07/15 07:04:45;;;;;;;7.60;2.58;;;18.10;99.90;;;;;;4978198;28;20037;-90
2022/07/15 07:07:12;;;;;;;6.40;2.50;;;17.80;99.90;;;;;;4971600;28;20077;-88
2022/07/15 07:09:47;;;;;;;6.97;2.00;;;17.60;99.90;;;;;;5004835;28;20557;-87
2022/07/15 07:12:13;;;;;;;5.18;1.92;;;17.80;99.90;;;;;;4990101;28;20038;-86
2022/07/15 07:14:39;;;;;;;8.05;1.67;;;18.00;99.90;;;;;;4986968;28;20049;-87
2022/07/15 07:17:04;;;;;;;3.90;1.70;;;18.20;99.90;;;;;;4973254;28;20430;-87
2022/07/15 07:19:31;;;;;;;6.38;1.85;;;18.20;99.90;;;;;;4989344;28;20570;-86
2022/07/15 07:21:59;;;;;;;4.97;1.73;;;18.10;99.90;;;;;;4972998;28;20030;-86
2022/07/15 07:24:25;;;;;;;4.68;1.67;;;18.10;99.90;;;;;;4972125;28;20027;-87
2022/07/15 07:26:51;;;;;;;3.47;1.67;;;18.20;99.90;;;;;;4965996;28;20481;-87
2022/07/15 07:29:22;;;;;;;6.13;2.00;;;18.30;99.90;;;;;;4972198;28;20039;-86
2022/07/15 07:31:49;;;;;;;7.43;2.13;;;18.40;99.90;;;;;;4971189;28;20026;-87
2022/07/15 07:34:15;;;;;;;6.43;2.10;;;18.50;99.90;;;;;;4973735;28;20476;-86
2022/07/15 07:36:44;;;;;;;5.18;2.00;;;18.80;99.90;;;;;;5001663;28;20045;-88
2022/07/15 07:39:11;;;;;;;3.55;1.70;;;19.40;99.90;;;;;;4976963;28;20026;-87
2022/07/15 07:41:37;;;;;;;6.00;2.20;;;19.50;99.90;;;;;;4974535;28;20026;-86
2022/07/15 07:44:03;;;;;;;4.63;2.17;;;19.30;99.90;;;;;;4976845;28;20053;-86
2022/07/15 07:46:28;;;;;;;5.18;2.20;;;19.20;99.90;;;;;;4977857;28;20427;-85
2022/07/15 07:48:57;;;;;;;4.63;2.22;;;19.20;99.90;;;;;;4996155;28;20040;-86
2022/07/15 07:51:23;;;;;;;6.20;2.30;;;19.20;99.90;;;;;;4978680;28;20030;-88
2022/07/15 07:53:49;;;;;;;5.15;1.67;;;19.10;99.90;;;;;;4978683;28;20411;-86
2022/07/15 07:56:15;;;;;;;7.55;2.10;;;19.00;99.90;;;;;;4993713;28;20064;-88
2022/07/15 07:58:40;;;;;;;7.68;2.03;;;19.10;99.90;;;;;;5008908;28;20041;-87
2022/07/15 08:01:06;;;;;;;5.55;1.85;;;19.80;99.90;;;;;;4992102;28;20085;-86
2022/07/15 08:03:37;;;;;;;9.25;1.83;;;21.70;97.50;;;;;;4977192;28;20073;-87
2022/07/15 08:06:04;;;;;;;;;;;23.70;93.70;;;;;;4977520;28;20538;-86
2022/07/15 08:08:30;;;;;;;6.35;1.73;;;25.40;90.30;;;;;;4992638;28;19995;-87
2022/07/15 08:10:57;;;;;;;5.78;1.80;;;26.40;81.50;;;;;;4995461;28;20260;-87
2022/07/15 08:13:25;;;;;;;6.35;2.50;;;27.20;76.00;;;;;;4974963;28;20026;-87
2022/07/15 08:15:56;;;;;;;2.40;1.40;;;27.50;71.20;;;;;;4978335;28;20034;-86
2022/07/15 08:18:23;;;;;;;4.82;1.83;;;28.10;68.20;;;;;;4994651;28;20112;-86
2022/07/15 08:20:49;;;;;;;7.60;1.88;;;28.80;64.50;;;;;;4994569;28;20035;-86
2022/07/15 08:23:20;;;;;;;4.13;2.00;;;29.00;62.70;;;;;;4975290;28;20041;-87
2022/07/15 08:25:46;;;;;;;3.40;1.80;;;28.90;60.70;;;;;;5008091;28;20041;-86
2022/07/15 08:28:14;;;;;;;3.60;1.55;;;29.10;60.00;;;;;;4975359;28;20395;-85
2022/07/15 08:30:41;;;;;;;5.68;1.52;;;28.80;59.20;;;;;;4991665;28;20050;-86
2022/07/15 08:33:06;;;;;;;4.07;1.90;;;28.80;59.30;;;;;;4991849;28;20034;-88
2022/07/15 08:35:34;;;;;;;5.00;1.90;;;28.80;58.00;;;;;;4975648;28;20028;-86
2022/07/15 08:38:05;;;;;;;3.72;1.48;;;29.50;58.00;;;;;;4976318;28;20125;-86
2022/07/15 08:40:33;;;;;;;5.05;1.75;;;29.80;57.60;;;;;;4970586;28;20030;-86
2022/07/15 08:42:58;;;;;;;3.78;1.45;;;29.10;58.60;;;;;;4990316;28;20022;-88
2022/07/15 08:45:24;;;;;;;4.90;1.70;;;28.80;57.60;;;;;;5008564;28;20093;-87
2022/07/15 08:47:51;;;;;;;10.18;1.67;;;28.80;57.00;;;;;;4976169;28;20034;-86
2022/07/15 08:50:19;;;;;;;5.82;2.38;;;28.50;57.10;;;;;;4977310;28;20566;-87
2022/07/15 08:52:52;;;;;;;5.00;2.00;;;27.60;58.00;;;;;;4982753;28;20046;-85
2022/07/15 08:55:18;;;;;;;4.72;1.50;;;26.50;60.50;;;;;;5004074;28;20085;-86
2022/07/15 08:57:46;;;;;;;5.00;1.60;;;26.40;59.40;;;;;;4978315;28;20480;-85
2022/07/15 09:00:12;;;;;;;2.78;1.92;;;25.90;60.40;;;;;;4986889;28;20108;-86
2022/07/15 09:02:38;;;;;;;5.88;2.33;;;25.00;61.80;;;;;;4990954;28;20030;-86
2022/07/15 09:05:27;;;;;;;9.80;2.10;;;24.60;63.10;;;;;;4989077;28;20053;-87
2022/07/15 09:08:13;;;;;;;3.58;1.65;;;25.00;63.20;;;;;;4986207;28;20066;-86
2022/07/15 09:11:01;;;;;;;4.93;2.03;;;26.20;62.80;;;;;;5004651;28;20026;-85
2022/07/15 09:13:40;;;;;;;6.93;1.90;;;27.10;62.70;;;;;;4997616;28;20085;-88
2022/07/15 09:16:08;;;;;;;12.23;2.40;;;27.90;61.10;;;;;;5006372;28;20041;-88
2022/07/15 09:18:44;;;;;;;3.80;1.58;;;28.80;58.60;;;;;;5008172;28;20389;-88
2022/07/15 09:21:19;;;;;;;3.60;1.65;;;29.60;57.10;;;;;;5006374;28;20438;-86
2022/07/15 09:23:46;;;;;;;6.45;2.10;;;28.30;58.70;;;;;;5005956;28;20025;-87
2022/07/15 09:26:36;;;;;;;6.50;2.30;;;26.70;61.20;;;;;;4996613;28;20038;-87
2022/07/15 09:33:34;;;;;;;7.65;2.05;;;25.10;63.40;;;;;;4975117;28;20070;-88
2022/07/15 09:38:41;;;;;;;3.28;2.28;;;22.00;72.60;;;;;;4990281;28;20042;-85
2022/07/15 09:41:27;;;;;;;4.32;2.00;;;21.70;75.10;;;;;;5012065;28;20041;-88
2022/07/15 09:44:02;;;;;;;6.07;2.38;;;23.70;70.50;;;;;;5006991;28;20057;-88
2022/07/15 09:47:01;;;;;;;9.57;2.58;;;24.30;66.30;;;;;;4983740;28;20045;-89
2022/07/15 09:49:27;;;;;;;8.00;1.98;;;25.20;66.00;;;;;;4984926;28;20126;-89
2022/07/15 09:52:11;;;;;;;4.05;1.90;;;27.00;61.80;;;;;;5000767;28;20206;-87
2022/07/15 09:55:02;;;;;;;8.98;2.47;;;29.30;58.70;;;;;;5009192;28;20463;-90
2022/07/15 09:57:28;;;;;;;5.72;2.13;;;30.90;55.90;;;;;;5004644;28;20023;-88
2022/07/15 09:59:55;;;;;;;3.38;1.83;;;30.60;55.20;;;;;;5004482;28;20045;-89
2022/07/15 10:02:22;;;;;;;4.50;2.13;;;29.10;57.00;;;;;;4993833;28;20035;-86
2022/07/15 10:04:47;;;;;;;4.57;2.10;;;26.10;59.70;;;;;;4981968;28;20058;-88
2022/07/15 10:07:17;;;;;;;4.22;2.10;;;24.20;65.00;;;;;;5002306;28;20034;-87
2022/07/15 10:09:44;;;;;;;5.75;2.70;;;23.10;68.20;;;;;;4988396;28;20373;-87
2022/07/15 10:12:14;;;;;;;4.43;2.30;;;22.30;70.10;;;;;;4978284;28;20099;-88
2022/07/15 10:15:04;;;;;;;6.97;1.88;;;22.10;72.30;;;;;;4988031;28;20061;-89
2022/07/15 10:17:39;;;;;;;3.78;2.22;;;21.60;75.40;;;;;;5002439;28;20337;-87
2022/07/15 10:20:33;;;;;;;4.07;1.98;;;21.60;75.00;;;;;;4985609;28;20065;-89
2022/07/15 10:23:40;;;;;;;5.30;2.00;;;22.90;73.60;;;;;;4976466;28;20546;-89
2022/07/15 10:26:38;;;;;;;9.82;2.40;;;24.30;70.20;;;;;;4984558;28;20041;-89
2022/07/15 10:29:06;;;;;;;5.35;2.00;;;25.30;68.00;;;;;;4982389;28;20027;-87
2022/07/15 10:31:37;;;;;;;8.85;2.30;;;25.60;66.30;;;;;;4984146;28;20027;-87
2022/07/15 10:34:03;;;;;;;4.72;2.22;;;25.60;66.30;;;;;;4969254;28;20085;-88
2022/07/15 10:36:53;;;;;;;4.85;1.88;;;25.50;64.90;;;;;;5005964;28;20656;-90
2022/07/15 10:39:40;;;;;;;5.82;2.13;;;25.60;64.70;;;;;;4975773;28;20578;-87
2022/07/15 10:42:06;;;;;;;4.13;2.53;;;25.00;65.80;;;;;;4983603;28;20031;-88
2022/07/15 10:44:48;;;;;;;4.40;2.40;;;24.20;66.20;;;;;;4987179;28;20034;-86
2022/07/15 10:47:13;;;;;;;;;;;24.20;68.10;;;;;;4986850;28;20481;-89
2022/07/15 10:49:47;;;;;;;4.55;2.70;;;24.60;69.90;;;;;;4991274;28;20004;-89
2022/07/15 10:52:23;;;;;;;8.13;2.50;;;24.30;68.60;;;;;;4975275;28;20096;-88
2022/07/15 10:54:57;;;;;;;6.65;2.40;;;23.20;71.90;;;;;;4990480;28;20030;-91
2022/07/15 10:57:50;;;;;;;8.50;2.83;;;22.50;73.20;;;;;;4997169;28;20026;-89
2022/07/15 11:00:28;;;;;;;8.35;2.60;;;22.10;73.60;;;;;;4974495;28;20050;-89
2022/07/15 11:03:05;;;;;;;9.52;2.40;;;22.20;74.50;;;;;;4971817;28;20041;-88
2022/07/15 11:05:31;;;;;;;5.78;2.10;;;22.90;73.20;;;;;;4969371;28;20030;-87
2022/07/15 11:07:57;;;;;;;5.30;2.30;;;23.50;72.20;;;;;;4987382;28;20053;-88
2022/07/15 11:10:24;;;;;;;5.22;2.40;;;24.40;69.00;;;;;;4966690;28;20045;-88
2022/07/15 11:12:53;;;;;;;6.18;2.88;;;25.60;68.60;;;;;;4986429;28;20041;-88
2022/07/15 11:15:23;;;;;;;6.60;2.25;;;26.50;65.40;;;;;;4988674;28;20038;-89
2022/07/15 11:17:51;;;;;;;8.02;2.75;;;27.50;62.60;;;;;;4983477;28;20802;-87
2022/07/15 11:20:33;;;;;;;4.90;2.63;;;26.90;59.80;;;;;;4982015;28;20031;-88
2022/07/15 11:23:01;;;;;;;3.70;1.90;;;26.00;62.10;;;;;;4995610;28;20042;-88
2022/07/15 11:25:37;;;;;;;8.20;2.38;;;25.60;63.60;;;;;;4993788;28;20067;-87
2022/07/15 11:28:14;;;;;;;6.10;2.40;;;25.80;62.80;;;;;;4976833;28;20027;-88
2022/07/15 11:30:40;;;;;;;5.32;2.08;;;25.40;65.30;;;;;;4970510;28;20043;-87
2022/07/15 11:33:11;;;;;;;5.38;2.20;;;25.10;65.30;;;;;;4977864;28;20662;-87
2022/07/15 11:35:46;;;;;;;;;;;25.00;65.10;;;;;;5005494;28;20058;-89
2022/07/15 11:38:15;;;;;;;11.50;3.92;;;25.40;68.80;;;;;;5003839;28;19996;-87
2022/07/15 11:46:29;;;;;;;8.63;2.40;;;24.20;68.10;;;;;;4989114;28;19914;-89
2022/07/15 11:48:56;;;;;;;6.20;2.47;;;23.30;70.20;;;;;;4970409;28;20030;-86
2022/07/15 11:51:36;;;;;;;8.85;2.80;;;23.20;70.60;;;;;;4956884;28;20476;-87
2022/07/15 11:54:02;;;;;;;5.22;2.70;;;23.10;70.50;;;;;;4982268;28;20142;-87
2022/07/15 11:56:28;;;;;;;9.98;2.83;;;22.90;70.20;;;;;;4987920;28;20023;-86
2022/07/15 11:58:57;;;;;;;5.90;2.72;;;23.00;69.80;;;;;;4984928;28;20512;-87
2022/07/15 12:01:44;;;;;;;5.97;2.40;;;23.70;68.30;;;;;;4965002;28;20030;-88
2022/07/15 12:04:10;;;;;;;3.88;2.22;;;24.70;68.50;;;;;;4973900;28;20129;-87
2022/07/15 12:06:36;;;;;;;4.32;2.20;;;25.30;68.00;;;;;;4986061;28;20054;-88
2022/07/15 12:09:11;;;;;;;5.95;2.55;;;25.40;67.40;;;;;;4990236;28;20081;-87
2022/07/15 12:11:38;;;;;;;3.60;2.13;;;24.80;68.70;;;;;;4969124;28;20039;-87
2022/07/15 12:14:11;;;;;;;5.53;2.17;;;24.20;69.00;;;;;;4980556;28;20068;-88
2022/07/15 12:16:45;;;;;;;5.88;2.80;;;23.90;70.50;;;;;;4985473;28;20039;-88
2022/07/15 12:19:28;;;;;;;7.30;2.92;;;23.50;68.80;;;;;;5001955;28;20506;-87
2022/07/15 12:22:00;;;;;;;6.43;2.55;;;22.90;69.60;;;;;;4980085;28;20427;-87
2022/07/15 12:24:47;;;;;;;5.90;3.05;;;23.20;70.30;;;;;;4971612;28;20030;-87
2022/07/15 12:27:13;;;;;;;7.68;2.63;;;23.60;69.30;;;;;;4994083;28;20133;-86
2022/07/15 12:29:47;;;;;;;11.48;2.55;;;24.10;69.10;;;;;;4988507;28;20062;-87
2022/07/15 12:32:15;;;;;;;4.30;2.17;;;24.80;66.20;;;;;;4989381;28;20076;-87
2022/07/15 12:34:47;;;;;;;3.63;2.35;;;25.50;65.20;;;;;;4975717;28;20170;-88
2022/07/15 12:37:23;;;;;;;7.63;2.20;;;25.50;67.30;;;;;;4981297;28;20034;-88
2022/07/15 12:40:01;;;;;;;4.35;1.90;;;24.90;69.40;;;;;;4972366;28;20026;-88
2022/07/15 12:42:50;;;;;;;7.03;2.00;;;24.50;70.50;;;;;;4983939;28;20130;-88
2022/07/15 12:45:24;;;;;;;4.82;2.50;;;25.00;70.20;;;;;;5005860;28;20149;-86
2022/07/15 12:48:03;;;;;;;4.38;2.20;;;25.60;67.20;;;;;;5007350;28;20057;-86
2022/07/15 12:50:54;;;;;;;7.95;2.55;;;25.80;66.00;;;;;;4999731;28;20643;-89
2022/07/15 12:53:21;;;;;;;10.52;2.50;;;26.10;66.30;;;;;;4971230;28;20053;-88
2022/07/15 12:55:49;;;;;;;5.78;2.20;;;25.80;64.20;;;;;;4999703;28;20015;-90
2022/07/15 12:58:22;;;;;;;2.63;1.85;;;26.10;64.10;;;;;;4995795;28;20051;-87
2022/07/15 13:00:49;;;;;;;8.60;2.50;;;26.60;63.20;;;;;;4983888;28;20050;-86
2022/07/15 13:03:24;;;;;;;10.05;2.65;;;26.30;60.60;;;;;;4990363;28;20026;-87
2022/07/15 13:05:52;;;;;;;4.88;2.35;;;25.00;63.30;;;;;;4991112;28;20113;-88
2022/07/15 13:08:23;;;;;;;4.03;2.13;;;24.40;64.90;;;;;;4986020;28;20054;-87
2022/07/15 13:10:52;;;;;;;12.68;2.53;;;24.70;65.60;;;;;;4995328;28;20463;-86
2022/07/15 13:13:20;;;;;;;4.60;2.03;;;25.50;65.70;;;;;;4971175;28;20034;-87
2022/07/15 13:15:50;;;;;;;9.25;2.30;;;26.00;63.50;;;;;;4981165;28;20049;-89
2022/07/15 13:18:24;;;;;;;6.43;1.92;;;25.90;63.40;;;;;;4976492;28;20030;-86
2022/07/15 13:20:51;;;;;;;8.70;2.30;;;25.80;63.90;;;;;;4977433;28;20084;-87